AKST,Max TemperatureF,Mean TemperatureF,Min TemperatureF,Max Dew PointF,MeanDew PointF,Min DewpointF,Max Humidity, Mean Humidity, Min Humidity, Max Sea Level PressureIn, Mean Sea Level PressureIn, Min Sea Level PressureIn, Max VisibilityMiles, Mean VisibilityMiles, Min VisibilityMiles, Max Wind SpeedMPH, Mean Wind SpeedMPH, Max Gust SpeedMPH,PrecipitationIn, CloudCover, Events, WindDirDegrees
2011-12-1,45,42,39,43,37,32,100,86,70,30.53,30.22,29.96,10,6,1,17,10,29,1.34,8,Rain,244
2011-12-2,44,40,37,43,39,34,100,91,76,30.55,30.50,30.47,10,8,3,10,4,,0.20,8,Rain,188
2011-12-3,39,36,33,38,36,33,100,94,87,30.65,30.59,30.51,10,7,2,8,3,,0.06,8,Rain,37
2011-12-4,43,40,37,41,39,37,100,96,89,30.64,30.57,30.46,10,5,2,6,2,,0.10,8,Rain,23
2011-12-5,48,42,35,45,41,27,100,90,65,30.45,30.20,30.08,10,7,2,15,7,25,0.34,7,Rain,205
2011-12-6,37,32,26,32,28,24,96,90,73,30.59,30.51,30.38,10,10,10,4,0,,0.00,1,,20
2011-12-7,32,26,21,29,25,20,96,89,82,30.59,30.54,30.47,10,10,10,7,1,,0.00,3,,40
2011-12-8,41,36,30,39,34,28,100,94,87,30.47,30.37,30.26,10,7,2,8,4,,0.06,8,Rain,38
2011-12-9,42,38,33,40,37,33,100,96,87,30.26,30.01,29.87,10,7,2,10,3,,0.62,8,Rain,175
2011-12-10,41,34,28,38,34,28,100,96,82,30.23,30.08,29.91,10,7,0,5,2,,0.01,7,Fog,338
2011-12-11,37,32,28,36,32,27,100,96,86,30.31,30.23,30.06,10,9,2,8,1,,0.04,7,Rain,105
2011-12-12,39,34,30,37,34,30,100,98,93,30.03,29.93,29.89,10,7,1,10,3,16,0.26,7,Rain,182
2011-12-13,33,30,26,34,30,27,100,99,93,30.05,29.92,29.86,10,4,0,5,0,,0.01,7,Fog-Rain-Snow,22
2011-12-14,33,29,24,31,29,23,100,95,92,30.06,30.03,29.99,10,10,10,7,3,,0.00,4,,38
2011-12-15,35,30,25,34,31,23,100,95,85,30.09,30.03,30.00,10,6,1,8,3,,0.20,7,Rain-Snow,46
2011-12-16,37,36,35,38,36,33,100,98,92,29.99,29.89,29.84,10,8,2,9,4,,0.27,8,Rain,32
2011-12-17,37,34,30,37,34,30,100,100,93,30.19,30.01,29.87,10,4,0,4,0,,0.01,7,Fog,210
2011-12-18,41,36,30,41,35,30,100,95,86,30.22,30.06,29.87,10,8,2,12,4,25,0.42,8,Rain-Snow,88
2011-12-19,46,42,37,46,41,37,100,95,81,29.89,29.61,29.45,10,7,2,20,7,32,0.51,8,Rain,207
2011-12-20,41,36,30,38,35,30,100,92,83,30.41,30.22,29.86,10,8,2,15,7,31,0.18,7,Rain,248
2011-12-21,43,38,33,40,35,32,96,87,70,30.41,30.12,29.88,10,8,4,9,4,29,0.52,7,Rain,167
2011-12-22,44,42,41,43,40,37,100,89,86,29.86,29.45,29.27,10,6,2,14,6,26,1.28,8,Rain,173
2011-12-23,43,39,35,43,36,31,100,88,70,29.97,29.80,29.51,10,8,2,15,8,30,0.60,8,Rain,200
2011-12-24,45,41,37,41,38,34,93,85,76,29.97,29.67,29.58,10,9,5,9,4,25,0.26,7,Rain,190
2011-12-25,41,36,30,37,34,29,100,91,78,29.86,29.62,29.48,10,9,2,7,2,,0.17,7,Rain,218
2011-12-26,43,36,30,40,32,26,100,88,70,29.70,29.38,29.07,10,5,1,15,6,31,1.21,8,Rain-Snow,205
2011-12-27,35,32,30,32,30,28,93,90,81,29.72,29.58,28.91,10,6,1,21,5,26,0.08,7,Snow,66
2011-12-28,44,38,33,43,36,31,100,93,87,29.43,28.98,28.80,10,7,2,18,7,34,0.95,8,Rain-Snow,203
2011-12-29,34,32,30,30,28,24,100,89,75,29.68,29.58,29.29,10,6,0,12,4,16,0.01,6,Fog-Snow,55
2011-12-30,33,30,26,29,25,19,93,85,59,30.00,29.72,29.30,10,5,0,16,4,31,0.00,7,Fog-Snow,230
2011-12-31,36,32,28,30,27,24,100,86,67,30.14,30.04,29.79,10,6,0,16,5,24,0.06,7,Fog-Snow,14